createdAt,value
2018-05-03T00:00:16.864Z,81.60
2018-05-03T00:02:44.291Z,81.70
2018-05-03T00:05:12.520Z,81.90
2018-05-03T00:07:39.951Z,81.90
2018-05-03T00:10:07.393Z,81.90
2018-05-03T00:12:35.594Z,82.10
2018-05-03T00:15:03.023Z,82.10
2018-05-03T00:17:30.467Z,82.30
2018-05-03T00:19:58.667Z,83.10
2018-05-03T00:22:26.096Z,82.60
2018-05-03T00:24:54.310Z,82.90
2018-05-03T00:27:21.742Z,82.80
2018-05-03T00:29:49.954Z,82.90
2018-05-03T00:32:17.395Z,82.90
2018-05-03T00:34:44.863Z,83.00
2018-05-03T00:37:12.327Z,83.00
2018-05-03T00:39:39.806Z,83.00
2018-05-03T00:42:07.241Z,83.00
2018-05-03T00:44:34.690Z,83.10
2018-05-03T00:47:02.124Z,84.30
2018-05-03T00:49:29.557Z,84.50
2018-05-03T00:51:57.062Z,84.50
2018-05-03T00:54:36.499Z,84.60
2018-05-03T00:57:03.970Z,84.70
2018-05-03T00:59:31.420Z,84.70
2018-05-03T01:01:58.863Z,84.60
2018-05-03T01:04:26.331Z,84.70
2018-05-03T01:06:53.760Z,86.00
2018-05-03T01:09:21.199Z,85.80
2018-05-03T01:11:49.421Z,85.80
2018-05-03T01:14:16.847Z,85.70
2018-05-03T01:16:45.071Z,85.30
2018-05-03T01:19:12.635Z,85.30
2018-05-03T01:21:40.165Z,85.30
2018-05-03T01:24:07.626Z,85.20
2018-05-03T01:26:35.071Z,85.10
2018-05-03T01:29:02.558Z,85.20
2018-05-03T01:31:30.143Z,85.20
2018-05-03T01:33:57.571Z,85.20
2018-05-03T01:36:31.871Z,85.10
2018-05-03T01:38:59.339Z,85.10
2018-05-03T01:41:26.768Z,85.10
2018-05-03T01:43:54.216Z,85.10
2018-05-03T01:46:22.420Z,85.10
2018-05-03T01:48:49.849Z,85.10
2018-05-03T01:51:17.343Z,85.10
2018-05-03T01:53:44.767Z,85.10
2018-05-03T01:56:13.027Z,85.00
2018-05-03T01:58:41.232Z,84.90
2018-05-03T02:01:08.703Z,84.90
2018-05-03T02:03:36.145Z,85.00
2018-05-03T02:06:03.943Z,85.00
2018-05-03T02:08:31.374Z,85.00
2018-05-03T02:10:58.843Z,85.10
2018-05-03T02:13:26.395Z,85.20
2018-05-03T02:15:53.823Z,85.30
2018-05-03T02:18:22.002Z,85.50
2018-05-03T02:20:49.487Z,85.40
2018-05-03T02:23:16.918Z,85.60
2018-05-03T02:25:45.404Z,85.70
2018-05-03T02:28:13.702Z,86.00
2018-05-03T02:30:41.131Z,85.90
2018-05-03T02:33:08.618Z,85.90
2018-05-03T02:35:36.067Z,86.00
2018-05-03T02:38:03.534Z,86.10
2018-05-03T02:40:31.005Z,86.30
2018-05-03T02:42:58.444Z,86.40
2018-05-03T02:45:25.907Z,86.50
2018-05-03T02:47:53.340Z,86.50
2018-05-03T02:50:20.785Z,86.40
2018-05-03T02:52:48.966Z,86.60
2018-05-03T02:55:17.340Z,86.60
2018-05-03T02:58:16.303Z,86.60
2018-05-03T03:01:15.592Z,86.60
2018-05-03T03:04:00.790Z,86.60
2018-05-03T03:06:45.927Z,86.60
2018-05-03T03:13:27.691Z,87.00
2018-05-03T03:16:13.363Z,87.00
2018-05-03T03:18:58.709Z,86.90
2018-05-03T03:21:43.951Z,87.00
2018-05-03T03:24:29.168Z,86.90
2018-05-03T03:27:14.415Z,87.00
2018-05-03T03:29:53.859Z,87.00
2018-05-03T03:32:33.411Z,87.00
2018-05-03T03:35:06.897Z,87.00
2018-05-03T03:37:46.184Z,87.10
2018-05-03T03:40:26.428Z,87.30
2018-05-03T03:43:14.672Z,87.10
2018-05-03T03:45:42.194Z,87.20
2018-05-03T03:48:09.629Z,87.50
2018-05-03T03:50:37.075Z,87.80
2018-05-03T03:53:05.264Z,87.80
2018-05-03T03:55:32.690Z,87.80
2018-05-03T03:58:00.921Z,87.90
2018-05-03T04:00:28.366Z,87.80
2018-05-03T04:02:55.794Z,87.90
2018-05-03T04:05:23.244Z,88.20
2018-05-03T04:07:51.459Z,88.30
2018-05-03T04:10:18.907Z,88.30
2018-05-03T04:12:46.343Z,88.30
2018-05-03T04:15:13.781Z,88.30
2018-05-03T04:17:53.983Z,88.40
2018-05-03T04:20:40.089Z,88.40
2018-05-03T04:23:21.244Z,88.50
2018-05-03T04:26:00.667Z,88.40
2018-05-03T04:28:28.158Z,88.50
2018-05-03T04:30:55.606Z,88.50
2018-05-03T04:33:23.031Z,88.50
2018-05-03T04:35:51.249Z,88.80
2018-05-03T04:38:18.700Z,88.70
2018-05-03T04:40:46.135Z,88.90
2018-05-03T04:43:13.567Z,88.90
2018-05-03T04:45:41.797Z,88.90
2018-05-03T04:48:09.252Z,88.90
2018-05-03T04:50:36.683Z,88.90
2018-05-03T04:53:04.175Z,89.00
2018-05-03T04:55:31.587Z,89.00
2018-05-03T04:57:59.030Z,89.20
2018-05-03T05:00:27.219Z,89.20
2018-05-03T05:02:54.650Z,89.10
2018-05-03T05:05:22.168Z,89.20
2018-05-03T05:07:49.614Z,89.10
2018-05-03T05:10:17.045Z,89.10
2018-05-03T05:12:44.543Z,89.10
2018-05-03T05:15:11.967Z,89.10
2018-05-03T05:17:39.439Z,89.10
2018-05-03T05:20:07.628Z,89.10
2018-05-03T05:22:35.055Z,89.00
2018-05-03T05:25:02.493Z,89.20
2018-05-03T05:27:30.706Z,89.20
2018-05-03T05:29:58.172Z,89.20
2018-05-03T05:32:25.587Z,89.10
2018-05-03T05:34:53.791Z,88.80
2018-05-03T05:37:21.211Z,88.80
2018-05-03T05:39:50.343Z,88.40
2018-05-03T05:42:17.783Z,88.40
2018-05-03T05:44:45.262Z,88.10
2018-05-03T05:47:13.748Z,88.60
2018-05-03T05:49:41.228Z,87.70
2018-05-03T05:52:08.655Z,87.40
2018-05-03T05:54:38.038Z,87.10
2018-05-03T05:57:05.523Z,87.50
2018-05-03T05:59:32.999Z,86.50
2018-05-03T06:02:00.433Z,86.20
2018-05-03T06:04:27.870Z,85.90
2018-05-03T06:06:55.310Z,85.50
2018-05-03T06:09:23.522Z,85.00
2018-05-03T06:14:14.448Z,84.20
2018-05-03T06:16:41.904Z,84.10
2018-05-03T06:19:09.337Z,82.90
2018-05-03T06:21:36.823Z,82.90
2018-05-03T06:24:04.271Z,82.50
2018-05-03T06:26:31.708Z,82.20
2018-05-03T06:28:59.195Z,81.80
2018-05-03T06:31:26.639Z,81.50
2018-05-03T06:33:54.103Z,81.20
2018-05-03T06:36:21.563Z,80.70
2018-05-03T06:38:49.059Z,80.00
2018-05-03T06:41:16.453Z,79.60
2018-05-03T06:43:43.920Z,79.00
2018-05-03T06:46:11.342Z,78.70
2018-05-03T06:48:39.546Z,77.60
2018-05-03T06:51:07.031Z,77.50
2018-05-03T06:53:34.479Z,77.00
2018-05-03T06:56:01.951Z,76.30
2018-05-03T06:58:29.597Z,75.30
2018-05-03T07:00:57.067Z,75.00
2018-05-03T07:03:24.501Z,74.20
2018-05-03T07:05:51.943Z,73.30
2018-05-03T07:08:19.425Z,72.60
2018-05-03T07:10:46.883Z,71.60
2018-05-03T07:13:14.331Z,70.90
2018-05-03T07:15:41.757Z,70.50
2018-05-03T07:18:09.974Z,69.70
2018-05-03T07:20:37.422Z,69.60
2018-05-03T07:23:04.887Z,69.40
2018-05-03T07:25:32.321Z,68.90
2018-05-03T07:27:59.808Z,68.70
2018-05-03T07:30:27.250Z,68.10
2018-05-03T07:32:54.674Z,68.00
2018-05-03T07:35:22.926Z,67.20
2018-05-03T07:37:50.356Z,67.20
2018-05-03T07:40:17.792Z,66.60
2018-05-03T07:42:45.243Z,66.30
2018-05-03T07:45:12.675Z,66.30
2018-05-03T07:47:40.872Z,64.60
2018-05-03T07:50:08.363Z,64.50
2018-05-03T07:52:35.799Z,63.80
2018-05-03T07:55:03.365Z,63.50
2018-05-03T07:57:30.807Z,63.00
2018-05-03T07:59:58.288Z,61.40
2018-05-03T08:02:25.711Z,61.30
2018-05-03T08:04:53.156Z,60.50
2018-05-03T08:07:21.357Z,59.30
2018-05-03T08:09:48.783Z,59.30
2018-05-03T08:12:17.003Z,58.50
2018-05-03T08:14:44.440Z,58.50
2018-05-03T08:17:11.871Z,58.00
2018-05-03T08:19:40.071Z,57.50
2018-05-03T08:22:07.571Z,57.40
2018-05-03T08:24:35.007Z,57.00
2018-05-03T08:27:02.453Z,56.50
2018-05-03T08:29:29.940Z,56.30
2018-05-03T08:31:57.372Z,56.10
2018-05-03T08:34:24.831Z,55.80
2018-05-03T08:36:52.278Z,55.70
2018-05-03T08:39:19.695Z,55.00
2018-05-03T08:41:47.927Z,54.50
2018-05-03T08:44:15.382Z,54.50
2018-05-03T08:46:42.903Z,54.50
2018-05-03T08:49:11.217Z,54.70
2018-05-03T08:51:38.679Z,54.70
2018-05-03T08:54:06.109Z,54.60
2018-05-03T08:56:33.582Z,54.30
2018-05-03T08:59:01.045Z,53.50
2018-05-03T09:01:28.521Z,53.10
2018-05-03T09:03:55.966Z,53.20
2018-05-03T09:06:23.386Z,53.30
2018-05-03T09:08:50.871Z,53.50
2018-05-03T09:11:18.310Z,53.60
2018-05-03T09:13:45.745Z,53.50
2018-05-03T09:16:13.953Z,53.40
2018-05-03T09:18:41.387Z,53.40
2018-05-03T09:21:08.849Z,53.30
2018-05-03T09:23:36.287Z,53.00
2018-05-03T09:26:03.769Z,51.80
2018-05-03T09:28:31.244Z,51.60
2018-05-03T09:30:58.716Z,51.50
2018-05-03T09:33:26.162Z,51.40
2018-05-03T09:35:53.702Z,51.60
2018-05-03T09:38:21.145Z,51.10
2018-05-03T09:40:48.592Z,50.70
2018-05-03T09:43:16.080Z,50.30
2018-05-03T09:45:43.542Z,50.00
2018-05-03T09:48:10.979Z,49.90
2018-05-03T09:50:38.400Z,50.10
2018-05-03T09:53:05.855Z,49.20
2018-05-03T09:55:33.297Z,48.90
2018-05-03T09:58:01.504Z,48.30
2018-05-03T10:00:29.015Z,48.10
2018-05-03T10:02:58.153Z,47.90
2018-05-03T10:05:26.375Z,47.50
2018-05-03T10:07:53.810Z,47.50
2018-05-03T10:10:22.024Z,46.10
2018-05-03T10:12:49.476Z,46.10
2018-05-03T10:15:16.903Z,45.90
2018-05-03T10:17:45.111Z,44.60
2018-05-03T10:20:12.568Z,44.60
2018-05-03T10:22:40.053Z,44.50
2018-05-03T10:25:08.201Z,45.50
2018-05-03T10:27:35.674Z,45.50
2018-05-03T10:30:03.263Z,45.20
2018-05-03T10:32:30.690Z,44.60
2018-05-03T10:34:58.129Z,43.70
2018-05-03T10:37:25.608Z,43.60
2018-05-03T10:39:53.060Z,43.60
2018-05-03T10:42:20.579Z,43.80
2018-05-03T10:44:47.982Z,44.10
2018-05-03T10:47:15.435Z,43.60
2018-05-03T10:49:42.887Z,42.60
2018-05-03T10:52:10.319Z,41.70
2018-05-03T10:54:37.791Z,42.00
2018-05-03T10:57:06.081Z,39.90
2018-05-03T10:59:33.539Z,39.90
2018-05-03T11:02:01.007Z,40.60
2018-05-03T11:04:28.448Z,41.10
2018-05-03T11:06:55.876Z,41.20
2018-05-03T11:09:23.326Z,41.00
2018-05-03T11:11:51.541Z,40.30
2018-05-03T11:14:18.967Z,40.30
2018-05-03T11:16:46.421Z,40.30
2018-05-03T11:19:14.640Z,40.20
2018-05-03T11:21:42.063Z,40.10
2018-05-03T11:24:09.548Z,40.20
2018-05-03T11:26:36.972Z,39.40
2018-05-03T11:29:04.402Z,39.30
2018-05-03T11:31:32.645Z,40.80
2018-05-03T11:34:00.048Z,40.80
2018-05-03T11:36:28.255Z,42.10
2018-05-03T11:38:55.707Z,42.10
2018-05-03T11:41:23.374Z,42.40
2018-05-03T11:43:50.801Z,43.00
2018-05-03T11:46:18.249Z,43.30
2018-05-03T11:48:46.487Z,42.70
2018-05-03T11:51:13.902Z,42.60
2018-05-03T11:53:41.336Z,42.90
2018-05-03T11:56:09.551Z,43.50
2018-05-03T11:58:36.994Z,43.50
2018-05-03T12:01:04.430Z,43.40
2018-05-03T12:03:32.628Z,43.40
2018-05-03T12:06:00.107Z,43.40
2018-05-03T12:08:28.270Z,41.50
2018-05-03T12:10:55.704Z,41.50
2018-05-03T12:13:23.176Z,40.80
2018-05-03T12:15:50.635Z,40.80
2018-05-03T12:18:18.078Z,40.90
2018-05-03T12:20:46.286Z,40.70
2018-05-03T12:23:13.720Z,40.70
2018-05-03T12:25:41.196Z,40.80
2018-05-03T12:28:08.667Z,41.10
2018-05-03T12:30:36.213Z,41.20
2018-05-03T12:33:03.688Z,41.40
2018-05-03T12:35:31.172Z,41.70
2018-05-03T12:37:58.623Z,42.30
2018-05-03T12:40:26.138Z,42.20
2018-05-03T12:42:53.590Z,42.00
2018-05-03T12:45:21.075Z,41.60
2018-05-03T12:47:48.515Z,41.50
2018-05-03T12:50:15.944Z,41.50
2018-05-03T12:52:43.435Z,41.40
2018-05-03T12:55:10.895Z,41.70
2018-05-03T12:57:38.345Z,41.90
2018-05-03T13:00:05.779Z,41.70
2018-05-03T13:02:33.252Z,41.30
2018-05-03T13:05:00.710Z,41.20
2018-05-03T13:07:28.166Z,41.60
2018-05-03T13:09:55.607Z,41.40
2018-05-03T13:12:23.030Z,41.00
2018-05-03T13:14:51.267Z,40.90
2018-05-03T13:17:18.708Z,40.90
2018-05-03T13:19:46.133Z,41.00
2018-05-03T13:22:14.345Z,41.20
2018-05-03T13:24:41.818Z,41.20
2018-05-03T13:27:09.252Z,40.40
2018-05-03T13:29:36.724Z,41.00
2018-05-03T13:32:04.215Z,41.00
2018-05-03T13:34:31.647Z,40.00
2018-05-03T13:36:59.082Z,39.40
2018-05-03T13:39:26.609Z,39.90
2018-05-03T13:41:54.088Z,40.20
2018-05-03T13:44:21.511Z,40.10
2018-05-03T13:46:48.997Z,40.60
2018-05-03T13:49:16.543Z,40.00
2018-05-03T13:51:43.981Z,40.20
2018-05-03T13:54:11.439Z,40.50
2018-05-03T13:56:38.876Z,39.90
2018-05-03T13:59:06.371Z,39.70
2018-05-03T14:01:33.812Z,39.50
2018-05-03T14:04:01.235Z,39.50
2018-05-03T14:06:29.576Z,39.00
2018-05-03T14:08:56.971Z,38.80
2018-05-03T14:11:25.195Z,38.00
2018-05-03T14:13:52.639Z,38.00
2018-05-03T14:16:20.104Z,37.90
2018-05-03T14:18:47.554Z,37.70
2018-05-03T14:21:14.984Z,37.00
2018-05-03T14:23:42.421Z,36.30
2018-05-03T14:26:10.617Z,34.90
2018-05-03T14:28:38.104Z,34.80
2018-05-03T14:31:05.555Z,34.50
2018-05-03T14:33:33.026Z,33.40
2018-05-03T14:36:00.475Z,33.40
2018-05-03T14:38:27.910Z,33.20
2018-05-03T14:40:55.339Z,32.90
2018-05-03T14:43:23.577Z,32.80
2018-05-03T14:45:51.021Z,32.80
2018-05-03T14:48:18.468Z,32.80
2018-05-03T14:50:45.935Z,33.90
2018-05-03T14:53:13.460Z,33.30
2018-05-03T14:55:41.658Z,33.50
2018-05-03T14:58:09.099Z,33.50
2018-05-03T15:00:36.651Z,33.70
2018-05-03T15:03:04.875Z,32.30
2018-05-03T15:05:32.325Z,32.20
2018-05-03T15:07:59.771Z,32.40
2018-05-03T15:10:27.248Z,33.40
2018-05-03T15:12:54.679Z,33.10
2018-05-03T15:15:22.151Z,33.80
2018-05-03T15:17:49.595Z,33.60
2018-05-03T15:20:17.035Z,32.80
2018-05-03T15:22:44.468Z,32.40
2018-05-03T15:25:12.677Z,31.60
2018-05-03T15:27:40.139Z,31.50
2018-05-03T15:30:07.562Z,31.40
2018-05-03T15:32:35.783Z,30.70
2018-05-03T15:35:03.235Z,30.60
2018-05-03T15:37:30.667Z,30.60
2018-05-03T15:39:58.102Z,30.20
2018-05-03T15:42:26.325Z,30.30
2018-05-03T15:44:53.755Z,30.30
2018-05-03T15:47:21.187Z,30.60
2018-05-03T15:49:49.441Z,30.30
2018-05-03T15:52:17.640Z,30.00
2018-05-03T15:54:46.156Z,29.70
2018-05-03T15:57:13.630Z,29.70
2018-05-03T15:59:41.082Z,29.70
2018-05-03T16:02:08.546Z,29.30
2018-05-03T16:04:35.986Z,28.80
2018-05-03T16:07:03.447Z,27.80
2018-05-03T16:09:30.901Z,28.10
2018-05-03T16:11:58.338Z,28.40
2018-05-03T16:14:25.765Z,28.50
2018-05-03T16:16:53.291Z,28.30
2018-05-03T16:19:20.743Z,27.90
2018-05-03T16:21:48.189Z,27.30
2018-05-03T16:24:15.695Z,27.60
2018-05-03T16:26:44.659Z,27.70
2018-05-03T16:29:12.111Z,27.70
2018-05-03T16:31:39.575Z,27.70
2018-05-03T16:34:07.008Z,28.20
2018-05-03T16:36:34.443Z,28.90
2018-05-03T16:39:01.944Z,29.60
2018-05-03T16:41:29.383Z,30.60
2018-05-03T16:43:56.816Z,31.40
2018-05-03T16:46:24.262Z,32.10
2018-05-03T16:48:52.492Z,32.60
2018-05-03T16:51:19.933Z,32.60
2018-05-03T16:53:47.371Z,33.30
2018-05-03T16:56:14.805Z,34.00
2018-05-03T16:58:43.011Z,34.70
2018-05-03T17:01:10.505Z,34.70
2018-05-03T17:03:37.967Z,35.10
2018-05-03T17:06:05.396Z,35.50
2018-05-03T17:08:32.850Z,35.80
2018-05-03T17:11:00.347Z,35.90
2018-05-03T17:13:27.783Z,36.30
2018-05-03T17:15:55.221Z,36.80
2018-05-03T17:18:22.683Z,36.70
2018-05-03T17:20:50.172Z,36.90
2018-05-03T17:23:17.587Z,37.20
2018-05-03T17:25:45.036Z,37.40
2018-05-03T17:28:12.537Z,37.50
2018-05-03T17:30:39.976Z,37.80
2018-05-03T17:33:07.423Z,38.50
2018-05-03T17:35:34.908Z,39.20
2018-05-03T17:38:02.455Z,39.50
2018-05-03T17:40:29.910Z,39.80
2018-05-03T17:42:57.401Z,40.20
2018-05-03T17:45:24.859Z,40.20
2018-05-03T17:47:52.323Z,40.10
2018-05-03T17:50:19.735Z,40.00
2018-05-03T17:52:47.216Z,40.10
2018-05-03T17:55:14.774Z,39.80
2018-05-03T17:57:42.367Z,40.00
2018-05-03T18:00:10.585Z,40.20
2018-05-03T18:02:38.030Z,40.20
2018-05-03T18:05:05.519Z,40.20
2018-05-03T18:07:32.958Z,40.30
2018-05-03T18:10:00.400Z,40.30
2018-05-03T18:12:27.896Z,40.30
2018-05-03T18:14:55.392Z,40.60
2018-05-03T18:17:23.739Z,41.30
2018-05-03T18:19:51.189Z,41.30
2018-05-03T18:22:18.655Z,41.40
2018-05-03T18:24:46.872Z,41.20
2018-05-03T18:27:14.310Z,41.20
2018-05-03T18:29:41.745Z,40.80
2018-05-03T18:32:09.387Z,40.80
2018-05-03T18:34:37.581Z,41.20
2018-05-03T18:37:05.021Z,41.20
2018-05-03T18:39:33.215Z,41.40
2018-05-03T18:42:00.652Z,41.30
2018-05-03T18:44:28.113Z,42.20
2018-05-03T18:46:55.599Z,41.80
2018-05-03T18:49:23.333Z,42.00
2018-05-03T18:51:50.795Z,42.50
2018-05-03T18:54:18.237Z,42.90
2018-05-03T18:56:46.437Z,44.00
2018-05-03T18:59:13.910Z,44.00
2018-05-03T19:01:41.404Z,44.30
2018-05-03T19:04:08.850Z,44.70
2018-05-03T19:06:36.384Z,45.10
2018-05-03T19:09:03.878Z,45.30
2018-05-03T19:11:31.596Z,45.50
2018-05-03T19:13:58.931Z,45.90
2018-05-03T19:16:26.377Z,46.30
2018-05-03T19:18:53.823Z,46.40
2018-05-03T19:21:22.038Z,47.20
2018-05-03T19:23:49.593Z,47.20
2018-05-03T19:26:16.955Z,47.40
2018-05-03T19:28:44.447Z,47.50
2018-05-03T19:31:11.903Z,47.60
2018-05-03T19:33:39.331Z,47.60
2018-05-03T19:36:06.772Z,47.80
2018-05-03T19:38:34.244Z,47.80
2018-05-03T19:41:01.680Z,48.20
2018-05-03T19:43:29.202Z,48.30
2018-05-03T19:45:56.614Z,48.40
2018-05-03T19:48:24.054Z,48.30
2018-05-03T19:50:51.754Z,48.40
2018-05-03T19:53:19.199Z,48.60
2018-05-03T19:55:46.650Z,48.80
2018-05-03T19:58:14.215Z,49.00
2018-05-03T20:00:41.665Z,49.10
2018-05-03T20:03:09.328Z,49.20
2018-05-03T20:05:36.761Z,49.20
2018-05-03T20:08:04.210Z,49.20
2018-05-03T20:10:32.435Z,49.60
2018-05-03T20:12:59.877Z,49.70
2018-05-03T20:15:27.324Z,49.70
2018-05-03T20:17:54.789Z,50.00
2018-05-03T20:20:22.227Z,50.40
2018-05-03T20:22:49.675Z,50.60
2018-05-03T20:25:17.104Z,51.00
2018-05-03T20:27:45.305Z,51.90
2018-05-03T20:30:13.503Z,51.90
2018-05-03T20:32:40.961Z,51.90
2018-05-03T20:35:08.372Z,51.80
2018-05-03T20:37:36.599Z,51.70
2018-05-03T20:40:04.048Z,51.70
2018-05-03T20:42:31.464Z,51.90
2018-05-03T20:44:59.711Z,52.30
2018-05-03T20:47:27.143Z,52.30
2018-05-03T20:49:54.591Z,52.70
2018-05-03T20:52:22.088Z,53.30
2018-05-03T20:54:49.511Z,53.80
2018-05-03T20:57:16.980Z,54.10
2018-05-03T20:59:44.540Z,54.50
2018-05-03T21:02:11.977Z,55.10
2018-05-03T21:04:39.412Z,55.70
2018-05-03T21:07:07.697Z,56.60
2018-05-03T21:09:35.072Z,56.50
2018-05-03T21:12:02.503Z,57.10
2018-05-03T21:14:29.957Z,57.50
2018-05-03T21:16:58.157Z,58.10
2018-05-03T21:19:25.624Z,58.10
2018-05-03T21:21:53.048Z,58.30
2018-05-03T21:24:20.551Z,58.60
2018-05-03T21:26:47.972Z,59.00
2018-05-03T21:29:15.467Z,60.30
2018-05-03T21:31:42.907Z,59.70
2018-05-03T21:34:10.336Z,60.80
2018-05-03T21:36:37.779Z,61.20
2018-05-03T21:39:06.007Z,61.70
2018-05-03T21:41:33.428Z,61.70
2018-05-03T21:44:00.911Z,62.00
2018-05-03T21:46:28.336Z,62.10
2018-05-03T21:48:56.535Z,62.40
2018-05-03T21:51:23.994Z,62.30
2018-05-03T21:53:51.494Z,62.60
2018-05-03T21:58:44.747Z,63.70
2018-05-03T22:01:12.190Z,64.60
2018-05-03T22:03:39.715Z,65.00
2018-05-03T22:06:07.925Z,65.20
2018-05-03T22:08:35.384Z,65.20
2018-05-03T22:11:02.790Z,65.30
2018-05-03T22:13:31.021Z,65.50
2018-05-03T22:15:58.483Z,65.40
2018-05-03T22:18:25.915Z,65.40
2018-05-03T22:20:53.358Z,65.70
2018-05-03T22:23:20.795Z,65.90
2018-05-03T22:25:48.307Z,66.30
2018-05-03T22:28:15.744Z,66.50
2018-05-03T22:30:43.209Z,66.70
2018-05-03T22:33:10.624Z,66.90
2018-05-03T22:35:38.820Z,67.30
2018-05-03T22:38:06.257Z,67.30
2018-05-03T22:40:33.754Z,67.40
2018-05-03T22:43:01.216Z,67.60
2018-05-03T22:45:28.671Z,67.70
2018-05-03T22:47:56.099Z,68.10
2018-05-03T22:50:23.667Z,68.20
2018-05-03T22:52:51.148Z,68.20
2018-05-03T22:55:18.727Z,68.20
2018-05-03T22:57:46.176Z,68.20
2018-05-03T23:00:13.725Z,68.40
2018-05-03T23:02:41.144Z,68.60
2018-05-03T23:05:09.357Z,69.40
2018-05-03T23:07:36.791Z,69.30
2018-05-03T23:10:04.235Z,69.30
2018-05-03T23:12:32.440Z,69.70
2018-05-03T23:14:59.871Z,69.70
2018-05-03T23:17:27.309Z,69.80
2018-05-03T23:19:55.511Z,70.40
2018-05-03T23:22:22.992Z,70.20
2018-05-03T23:24:50.426Z,70.40
2018-05-03T23:27:17.885Z,70.50
2018-05-03T23:29:45.306Z,70.50
2018-05-03T23:32:12.831Z,70.50
2018-05-03T23:34:40.259Z,71.40
2018-05-03T23:37:07.696Z,70.90
2018-05-03T23:39:35.880Z,71.10
2018-05-03T23:42:03.368Z,71.10
2018-05-03T23:44:30.807Z,71.40
2018-05-03T23:46:58.236Z,71.70
2018-05-03T23:49:26.435Z,72.10
2018-05-03T23:51:53.864Z,72.10
2018-05-03T23:54:22.079Z,72.30
2018-05-03T23:56:49.507Z,72.30
2018-05-03T23:59:17.709Z,72.60
